Fountain Lake, Arkansas
Current Conditions -  °F | °C
As of 9:53 PM on Thursday 18 Dec 2014 (Local Time) from KHOT Reporting Station
Overcast Overcast  
Wind Chill: 37°   Ceiling: 500
Heat Index: 41°   Visibility: 7mi
Dew Point: 39°   Wind: 6mph
Humidity: 93%   Direction: 70°ENE
Pressure: 30.22"   Gusts: NA
Location:  34.5331°N, 93.0035°W
Report Text: KHOT 190353Z AUTO 07005KT 7SM OVC005 05/04 A3022 RMK AO2 SLP237 T00500039
Loading
Personal Weather Stations






























Interactive Weather Map New forecast layout! Learn more

10-Day Weather Forecast

Advertisements
Track Severe Weather on mobile